Time;durP1;ratioP1;P1;durP2;ratioP2;P2;SDS_P1;SDS_P2;PMS_P1;PMS_P2;Temp;Humidity;BMP_temperature;BMP_pressure;BME280_temperature;BME280_humidity;BME280_pressure;Samples;Min_cycle;Max_cycle;Signal;HPM_P1;HPM_P2
2022/05/03 00:00:50;;;;;;;10.10;6.25;;;;;;;;;;5085438;28;20131;-74
2022/05/03 00:03:24;;;;;;;10.93;6.57;;;;;;;;;;5087852;28;20050;-74
2022/05/03 00:06:04;;;;;;;12.50;6.63;;;;;;;;;;5087656;28;20415;-74
2022/05/03 00:08:49;;;;;;;11.05;6.70;;;;;;;;;;5071814;28;20606;-74
2022/05/03 00:11:15;;;;;;;;;;;;;;;;;;5088326;28;20051;-74
2022/05/03 00:14:00;;;;;;;10.48;6.47;;;;;;;;;;5087340;28;19915;-74
2022/05/03 00:16:27;;;;;;;10.50;6.80;;;;;;;;;;5072198;28;20334;-74
2022/05/03 00:18:53;;;;;;;10.40;6.75;;;;;;;;;;5087483;28;20445;-74
2022/05/03 00:21:19;;;;;;;12.93;9.05;;;;;;;;;;5087093;28;20048;-74
2022/05/03 00:23:46;;;;;;;12.20;6.97;;;;;;;;;;5087473;28;20656;-74
2022/05/03 00:26:12;;;;;;;10.50;7.10;;;;;;;;;;5087307;28;20119;-74
2022/05/03 00:28:39;;;;;;;12.50;8.27;;;;;;;;;;5087382;28;20040;-74
2022/05/03 00:31:06;;;;;;;12.73;8.00;;;;;;;;;;5087217;28;20044;-74
2022/05/03 00:33:33;;;;;;;12.90;8.38;;;;;;;;;;5089118;28;20082;-74
2022/05/03 00:35:59;;;;;;;10.27;7.07;;;;;;;;;;5057810;28;20487;-74
2022/05/03 00:38:26;;;;;;;10.68;6.82;;;;;;;;;;5074127;28;20499;-74
2022/05/03 00:40:59;;;;;;;11.10;7.45;;;;;;;;;;5091463;28;20284;-74
2022/05/03 00:43:44;;;;;;;10.57;7.10;;;;;;;;;;5094611;28;20039;-74
2022/05/03 00:46:10;;;;;;;;;;;;;;;;;;5078574;28;20467;-74
2022/05/03 00:48:36;;;;;;;12.95;8.75;;;;;;;;;;5094953;28;19915;-74
2022/05/03 00:51:24;;;;;;;13.40;8.75;;;;;;;;;;5077994;28;20077;-74
2022/05/03 00:54:02;;;;;;;13.00;8.70;;;;;;;;;;5113262;27;20051;-74
2022/05/03 00:56:38;;;;;;;13.38;8.60;;;;;;;;;;5094806;28;20040;-74
2022/05/03 00:59:13;;;;;;;13.68;8.85;;;;;;;;;;5094403;28;20039;-74
2022/05/03 01:01:52;;;;;;;13.80;8.82;;;;;;;;;;5112685;27;20339;-74
2022/05/03 01:04:26;;;;;;;14.18;8.05;;;;;;;;;;5094030;28;20067;-74
2022/05/03 01:06:59;;;;;;;13.60;9.30;;;;;;;;;;5094144;28;20044;-74
2022/05/03 01:09:32;;;;;;;12.45;8.73;;;;;;;;;;5077878;28;20036;-74
2022/05/03 01:12:04;;;;;;;13.27;8.98;;;;;;;;;;5094456;28;20523;-74
2022/05/03 01:14:41;;;;;;;12.38;9.32;;;;;;;;;;5094127;28;20039;-74
2022/05/03 01:17:23;;;;;;;13.40;9.05;;;;;;;;;;5094135;28;20097;-74
2022/05/03 01:19:58;;;;;;;12.52;8.52;;;;;;;;;;5093971;28;20394;-74
2022/05/03 01:22:43;;;;;;;13.60;8.98;;;;;;;;;;5076795;28;20139;-74
2022/05/03 01:25:09;;;;;;;;;;;;;;;;;;5111913;27;20080;-74
2022/05/03 01:27:41;;;;;;;13.43;9.63;;;;;;;;;;5110477;28;19916;-74
2022/05/03 01:30:09;;;;;;;14.55;10.20;;;;;;;;;;5093723;28;20036;-74
2022/05/03 01:32:37;;;;;;;14.02;9.65;;;;;;;;;;5076829;28;20402;-74
2022/05/03 01:35:06;;;;;;;13.38;8.65;;;;;;;;;;5093521;28;20503;-74
2022/05/03 01:37:33;;;;;;;13.38;8.15;;;;;;;;;;5093472;28;20095;-74
2022/05/03 01:40:12;;;;;;;13.32;9.05;;;;;;;;;;5094291;28;20514;-74
2022/05/03 01:42:45;;;;;;;13.27;8.75;;;;;;;;;;5093292;28;20051;-74
2022/05/03 01:45:11;;;;;;;12.98;9.27;;;;;;;;;;5089996;28;20040;-74
2022/05/03 01:47:57;;;;;;;13.82;9.88;;;;;;;;;;5084117;28;20089;-74
2022/05/03 01:50:38;;;;;;;14.02;9.20;;;;;;;;;;5076315;28;20046;-74
2022/05/03 01:53:13;;;;;;;13.85;9.98;;;;;;;;;;5092722;28;20123;-74
2022/05/03 01:55:59;;;;;;;16.15;9.63;;;;;;;;;;5093857;28;20031;-74
2022/05/03 01:58:44;;;;;;;14.88;9.55;;;;;;;;;;5076588;28;20509;-74
2022/05/03 02:01:10;;;;;;;15.98;9.93;;;;;;;;;;5091075;28;20169;-74
2022/05/03 02:03:50;;;;;;;14.80;10.32;;;;;;;;;;5092256;28;20081;-74
2022/05/03 02:06:19;;;;;;;14.07;9.93;;;;;;;;;;5093216;28;20039;-74
2022/05/03 02:09:00;;;;;;;13.23;9.57;;;;;;;;;;5092834;28;20051;-74
2022/05/03 02:11:26;;;;;;;14.95;11.52;;;;;;;;;;5092611;28;20047;-74
2022/05/03 02:17:01;;;;;;;15.07;10.23;;;;;;;;;;5092772;28;20119;-74
2022/05/03 02:19:36;;;;;;;13.13;10.40;;;;;;;;;;5092824;28;20281;-74
2022/05/03 02:22:17;;;;;;;15.80;10.90;;;;;;;;;;5092820;28;20385;-74
2022/05/03 02:24:51;;;;;;;14.43;10.82;;;;;;;;;;5092989;28;20039;-74
2022/05/03 02:27:18;;;;;;;17.73;11.13;;;;;;;;;;5092537;28;20126;-74
2022/05/03 02:29:49;;;;;;;15.20;11.02;;;;;;;;;;5092774;28;20051;-74
2022/05/03 02:32:25;;;;;;;16.33;11.48;;;;;;;;;;5092291;28;20123;-74
2022/05/03 02:34:58;;;;;;;15.38;11.27;;;;;;;;;;5089671;28;20105;-74
2022/05/03 02:37:26;;;;;;;14.00;10.55;;;;;;;;;;5088990;28;20048;-74
2022/05/03 02:39:57;;;;;;;15.90;10.65;;;;;;;;;;5090099;28;20047;-74
2022/05/03 02:42:25;;;;;;;14.25;10.57;;;;;;;;;;5088909;28;20074;-74
2022/05/03 02:44:52;;;;;;;13.05;10.13;;;;;;;;;;5089006;28;20036;-74
2022/05/03 02:47:29;;;;;;;14.48;9.88;;;;;;;;;;5089044;28;20491;-74
2022/05/03 02:49:55;;;;;;;15.52;10.88;;;;;;;;;;5088895;28;20036;-74
2022/05/03 02:52:21;;;;;;;16.17;11.35;;;;;;;;;;5088764;28;20051;-74
2022/05/03 02:54:50;;;;;;;15.45;10.52;;;;;;;;;;5088765;28;20270;-74
2022/05/03 02:57:22;;;;;;;14.60;10.40;;;;;;;;;;5088787;28;20059;-74
2022/05/03 03:03:04;;;;;;;13.98;10.18;;;;;;;;;;5083466;28;20048;-74
2022/05/03 03:05:31;;;;;;;15.05;9.65;;;;;;;;;;5071826;28;20039;-74
2022/05/03 03:08:04;;;;;;;15.23;11.90;;;;;;;;;;5088573;28;20036;-74
2022/05/03 03:10:30;;;;;;;12.98;9.38;;;;;;;;;;5088804;28;20040;-74
2022/05/03 03:13:22;;;;;;;14.63;10.52;;;;;;;;;;5088769;28;20074;-74
2022/05/03 03:15:48;;;;;;;14.30;10.65;;;;;;;;;;5088354;28;20040;-74
2022/05/03 03:18:15;;;;;;;14.82;10.80;;;;;;;;;;5088964;28;20036;-74
2022/05/03 03:20:45;;;;;;;16.35;11.75;;;;;;;;;;5089482;28;20154;-74
2022/05/03 03:23:15;;;;;;;14.20;11.13;;;;;;;;;;5072129;28;20036;-74
2022/05/03 03:25:45;;;;;;;16.55;12.45;;;;;;;;;;5088430;28;20403;-74
2022/05/03 03:28:17;;;;;;;18.50;13.93;;;;;;;;;;5087960;28;20032;-74
2022/05/03 03:30:44;;;;;;;17.10;12.77;;;;;;;;;;5088117;28;20082;-74
2022/05/03 03:33:11;;;;;;;18.58;13.98;;;;;;;;;;5088226;28;20044;-74
2022/05/03 03:35:37;;;;;;;18.05;12.82;;;;;;;;;;5087867;28;20411;-74
2022/05/03 03:38:04;;;;;;;14.77;10.88;;;;;;;;;;5088098;28;20595;-74
2022/05/03 03:40:30;;;;;;;15.40;10.88;;;;;;;;;;5071039;28;20082;-74
2022/05/03 03:42:57;;;;;;;14.90;10.75;;;;;;;;;;5087979;28;20040;-74
2022/05/03 03:45:23;;;;;;;17.63;11.55;;;;;;;;;;5087795;28;20055;-74
2022/05/03 03:47:50;;;;;;;15.27;10.77;;;;;;;;;;5087604;28;20097;-74
2022/05/03 03:50:16;;;;;;;17.15;11.50;;;;;;;;;;5088547;28;20475;-73
2022/05/03 03:52:43;;;;;;;15.10;11.07;;;;;;;;;;5088139;28;20048;-73
2022/05/03 03:55:10;;;;;;;15.18;11.27;;;;;;;;;;5087967;28;20052;-73
2022/05/03 03:57:46;;;;;;;17.60;12.85;;;;;;;;;;5070661;28;20040;-73
2022/05/03 04:00:14;;;;;;;17.02;12.70;;;;;;;;;;5070964;28;20404;-73
2022/05/03 04:02:44;;;;;;;16.40;11.45;;;;;;;;;;5085272;28;20068;-73
2022/05/03 04:05:29;;;;;;;16.45;11.50;;;;;;;;;;5087707;28;20064;-72
2022/05/03 04:07:55;;;;;;;16.02;12.07;;;;;;;;;;5087632;28;20040;-72
2022/05/03 04:10:22;;;;;;;18.08;13.20;;;;;;;;;;5087809;28;20052;-73
2022/05/03 04:12:48;;;;;;;15.45;12.05;;;;;;;;;;5087567;28;20051;-73
2022/05/03 04:15:14;;;;;;;16.02;13.07;;;;;;;;;;5087438;28;20044;-72
2022/05/03 04:17:41;;;;;;;17.25;12.70;;;;;;;;;;5087587;28;20458;-72
2022/05/03 04:20:07;;;;;;;16.08;12.25;;;;;;;;;;5087169;28;20040;-72
2022/05/03 04:22:35;;;;;;;16.58;12.30;;;;;;;;;;5084790;28;20549;-73
2022/05/03 04:25:02;;;;;;;15.32;12.20;;;;;;;;;;5087419;28;20118;-73
2022/05/03 04:27:28;;;;;;;18.38;14.25;;;;;;;;;;5071657;28;20044;-73
2022/05/03 04:29:56;;;;;;;18.63;14.05;;;;;;;;;;5070292;28;20036;-73
2022/05/03 04:32:22;;;;;;;18.88;14.80;;;;;;;;;;5087403;28;20058;-73
2022/05/03 04:34:49;;;;;;;20.95;14.75;;;;;;;;;;5087102;28;20364;-73
2022/05/03 04:37:16;;;;;;;18.85;14.70;;;;;;;;;;5070344;28;20079;-73
2022/05/03 04:39:42;;;;;;;18.65;14.68;;;;;;;;;;5087337;28;20476;-73
2022/05/03 04:42:08;;;;;;;19.02;15.07;;;;;;;;;;5087105;28;20116;-73
2022/05/03 04:44:35;;;;;;;20.10;16.02;;;;;;;;;;5102272;28;20047;-73
2022/05/03 04:47:01;;;;;;;22.27;17.40;;;;;;;;;;5109619;28;20099;-73
2022/05/03 04:49:27;;;;;;;23.33;18.27;;;;;;;;;;5074666;28;20078;-73
2022/05/03 04:51:54;;;;;;;22.55;18.75;;;;;;;;;;5080729;28;20044;-73
2022/05/03 04:54:20;;;;;;;21.20;17.45;;;;;;;;;;5084803;28;20076;-73
2022/05/03 04:56:48;;;;;;;20.88;17.00;;;;;;;;;;5081450;28;20036;-72
2022/05/03 04:59:14;;;;;;;18.83;15.77;;;;;;;;;;5085324;28;20047;-72
2022/05/03 05:01:40;;;;;;;19.95;15.90;;;;;;;;;;5082990;28;20068;-74
2022/05/03 05:04:06;;;;;;;18.88;15.20;;;;;;;;;;5086953;28;20089;-74
2022/05/03 05:06:32;;;;;;;22.80;16.38;;;;;;;;;;5086653;28;20043;-73
2022/05/03 05:08:59;;;;;;;18.98;14.48;;;;;;;;;;5086701;28;20097;-76
2022/05/03 05:11:25;;;;;;;23.27;18.15;;;;;;;;;;5078498;28;20040;-76
2022/05/03 05:13:51;;;;;;;20.08;16.45;;;;;;;;;;5067576;28;20058;-76
2022/05/03 05:16:17;;;;;;;21.50;17.05;;;;;;;;;;5070257;28;20037;-76
2022/05/03 05:18:44;;;;;;;20.98;17.60;;;;;;;;;;5084459;28;20412;-76
2022/05/03 05:21:11;;;;;;;21.95;17.08;;;;;;;;;;5087808;28;20461;-76
2022/05/03 05:23:37;;;;;;;23.48;18.52;;;;;;;;;;5087722;28;20032;-76
2022/05/03 05:26:04;;;;;;;25.27;19.42;;;;;;;;;;5087945;28;20036;-76
2022/05/03 05:28:30;;;;;;;24.63;19.02;;;;;;;;;;5089560;28;20289;-76
2022/05/03 05:30:57;;;;;;;25.23;20.05;;;;;;;;;;5091567;28;20082;-76
2022/05/03 05:33:23;;;;;;;23.30;17.70;;;;;;;;;;5075042;28;20036;-76
2022/05/03 05:35:49;;;;;;;25.95;20.35;;;;;;;;;;5094729;28;20035;-76
2022/05/03 05:38:17;;;;;;;26.05;21.02;;;;;;;;;;5079180;28;20032;-76
2022/05/03 05:40:43;;;;;;;26.20;20.42;;;;;;;;;;5127376;27;20079;-76
2022/05/03 05:43:10;;;;;;;23.85;19.20;;;;;;;;;;5094757;28;20040;-76
2022/05/03 05:45:37;;;;;;;30.08;23.92;;;;;;;;;;5094331;28;20032;-76
2022/05/03 05:48:03;;;;;;;31.30;23.58;;;;;;;;;;5093878;28;20097;-76
2022/05/03 05:50:29;;;;;;;29.98;23.08;;;;;;;;;;5077212;28;20046;-76
2022/05/03 05:55:42;;;;;;;30.77;22.38;;;;;;;;;;5093908;28;20044;-76
2022/05/03 05:58:09;;;;;;;26.98;21.45;;;;;;;;;;5094316;28;20514;-76
2022/05/03 06:00:35;;;;;;;26.50;22.55;;;;;;;;;;5094246;28;20078;-76
2022/05/03 06:03:01;;;;;;;31.88;24.98;;;;;;;;;;5093980;28;20047;-76
2022/05/03 06:05:30;;;;;;;31.33;23.70;;;;;;;;;;5093448;28;20069;-76
2022/05/03 06:07:56;;;;;;;30.05;23.63;;;;;;;;;;5093953;28;20089;-76
2022/05/03 06:10:23;;;;;;;30.23;23.80;;;;;;;;;;5094212;28;20036;-75
2022/05/03 06:12:50;;;;;;;27.50;21.73;;;;;;;;;;5093842;28;20048;-75
2022/05/03 06:15:19;;;;;;;26.33;20.70;;;;;;;;;;5093565;28;20047;-76
2022/05/03 06:17:46;;;;;;;30.13;24.08;;;;;;;;;;5094189;28;20452;-77
2022/05/03 06:20:12;;;;;;;28.58;22.17;;;;;;;;;;5094036;28;20119;-76
2022/05/03 06:22:41;;;;;;;24.58;20.27;;;;;;;;;;5094018;28;20044;-76
2022/05/03 06:25:11;;;;;;;29.52;21.63;;;;;;;;;;5093783;28;20036;-76
2022/05/03 06:27:38;;;;;;;29.23;22.13;;;;;;;;;;5093834;28;20046;-76
2022/05/03 06:30:05;;;;;;;31.85;23.33;;;;;;;;;;5076675;28;20521;-76
2022/05/03 06:32:31;;;;;;;30.42;23.77;;;;;;;;;;5076260;28;20043;-76
2022/05/03 06:34:57;;;;;;;31.13;22.17;;;;;;;;;;5090261;28;20054;-76
2022/05/03 06:37:23;;;;;;;28.90;21.98;;;;;;;;;;5090219;28;20044;-76
2022/05/03 06:39:49;;;;;;;29.90;23.15;;;;;;;;;;5072859;28;20047;-76
2022/05/03 06:42:19;;;;;;;38.00;27.00;;;;;;;;;;5089530;28;20040;-76
2022/05/03 06:44:46;;;;;;;42.20;27.88;;;;;;;;;;5089806;28;20036;-76
2022/05/03 06:47:12;;;;;;;44.42;29.73;;;;;;;;;;5089733;28;20032;-76
2022/05/03 06:49:38;;;;;;;43.15;31.63;;;;;;;;;;5089338;28;20040;-76
2022/05/03 06:52:04;;;;;;;41.80;28.08;;;;;;;;;;5072535;28;20044;-76
2022/05/03 06:54:30;;;;;;;33.00;25.70;;;;;;;;;;5089335;28;20036;-76
2022/05/03 06:56:56;;;;;;;40.83;28.08;;;;;;;;;;5072552;28;20043;-76
2022/05/03 06:59:22;;;;;;;46.88;32.58;;;;;;;;;;5089212;28;20036;-76
2022/05/03 07:01:48;;;;;;;42.17;29.40;;;;;;;;;;5089488;28;20411;-77
2022/05/03 07:04:15;;;;;;;51.47;33.90;;;;;;;;;;5089270;28;20153;-77
2022/05/03 07:06:41;;;;;;;54.92;34.63;;;;;;;;;;5089601;28;20040;-76
2022/05/03 07:09:07;;;;;;;46.22;32.15;;;;;;;;;;5088973;28;20036;-76
2022/05/03 07:11:33;;;;;;;53.38;34.60;;;;;;;;;;5088895;28;20040;-76
2022/05/03 07:14:00;;;;;;;50.88;32.60;;;;;;;;;;5089980;28;20071;-77
2022/05/03 07:16:26;;;;;;;48.47;31.58;;;;;;;;;;5089296;28;20089;-76
2022/05/03 07:24:21;;;;;;;34.97;17.38;;;;;;;;;;5089622;28;20174;-76
2022/05/03 07:26:48;;;;;;;27.38;13.13;;;;;;;;;;5089590;28;20505;-76
2022/05/03 07:29:14;;;;;;;22.65;11.00;;;;;;;;;;5089761;28;20122;-76
2022/05/03 07:31:43;;;;;;;21.58;10.10;;;;;;;;;;5072987;28;20495;-76
2022/05/03 07:34:09;;;;;;;18.73;8.95;;;;;;;;;;5089101;28;20063;-76
2022/05/03 07:36:36;;;;;;;21.63;9.77;;;;;;;;;;5089549;28;20440;-76
2022/05/03 07:39:03;;;;;;;18.23;8.95;;;;;;;;;;5089513;28;20047;-76
2022/05/03 07:41:29;;;;;;;18.25;8.60;;;;;;;;;;5088983;28;20040;-77
2022/05/03 07:43:55;;;;;;;18.10;8.10;;;;;;;;;;5089291;28;20044;-76
2022/05/03 07:46:21;;;;;;;16.92;7.30;;;;;;;;;;5089380;28;20224;-76
2022/05/03 07:48:47;;;;;;;18.25;7.28;;;;;;;;;;5089118;28;20578;-77
2022/05/03 07:51:14;;;;;;;18.08;7.60;;;;;;;;;;5089171;28;20039;-76
2022/05/03 07:53:41;;;;;;;18.55;7.75;;;;;;;;;;5089414;28;20078;-77
2022/05/03 07:56:09;;;;;;;14.60;7.47;;;;;;;;;;5089050;28;20040;-78
2022/05/03 07:58:36;;;;;;;14.80;6.88;;;;;;;;;;5072371;28;20040;-78
2022/05/03 08:01:02;;;;;;;17.35;8.43;;;;;;;;;;5089083;28;20468;-77
2022/05/03 08:03:28;;;;;;;18.48;7.90;;;;;;;;;;5088434;28;20040;-77
2022/05/03 08:05:55;;;;;;;17.35;7.55;;;;;;;;;;5089527;28;20460;-78
2022/05/03 08:08:21;;;;;;;19.70;7.57;;;;;;;;;;5089030;28;20040;-77
2022/05/03 08:10:48;;;;;;;19.20;7.88;;;;;;;;;;5088668;28;20503;-77
2022/05/03 08:13:15;;;;;;;15.13;7.53;;;;;;;;;;5088483;28;20047;-78
2022/05/03 08:15:41;;;;;;;17.65;7.90;;;;;;;;;;5089055;28;20542;-77
2022/05/03 08:18:08;;;;;;;18.02;8.27;;;;;;;;;;5088526;28;20074;-78
2022/05/03 08:20:34;;;;;;;22.67;9.25;;;;;;;;;;5088574;28;20072;-78
2022/05/03 08:23:01;;;;;;;22.48;9.52;;;;;;;;;;5088441;28;20044;-77
2022/05/03 08:25:27;;;;;;;21.13;8.85;;;;;;;;;;5088722;28;20039;-77
2022/05/03 08:27:53;;;;;;;19.98;9.27;;;;;;;;;;5088803;28;20442;-77
2022/05/03 08:30:20;;;;;;;15.88;8.25;;;;;;;;;;5089206;28;20510;-77
2022/05/03 08:32:46;;;;;;;18.50;8.25;;;;;;;;;;5088285;28;20051;-77
2022/05/03 08:35:12;;;;;;;28.23;8.60;;;;;;;;;;5088373;28;20048;-77
2022/05/03 08:43:08;;;;;;;20.30;6.72;;;;;;;;;;5088226;28;20130;-77
2022/05/03 08:45:34;;;;;;;21.77;7.25;;;;;;;;;;5088429;28;20046;-78
2022/05/03 08:48:01;;;;;;;17.90;7.20;;;;;;;;;;5088490;28;20028;-79
2022/05/03 08:50:29;;;;;;;21.13;7.35;;;;;;;;;;5071124;28;20067;-78
2022/05/03 08:53:00;;;;;;;19.35;7.07;;;;;;;;;;5088573;28;20418;-77
2022/05/03 08:55:27;;;;;;;17.63;6.25;;;;;;;;;;5087979;28;20051;-77
2022/05/03 08:57:53;;;;;;;16.00;6.93;;;;;;;;;;5088221;28;20051;-77
2022/05/03 09:00:20;;;;;;;17.17;6.72;;;;;;;;;;5087928;28;20048;-77
2022/05/03 09:02:56;;;;;;;17.70;6.55;;;;;;;;;;5072876;28;20115;-77
2022/05/03 09:05:23;;;;;;;23.85;7.47;;;;;;;;;;5076370;28;20376;-76
2022/05/03 09:07:54;;;;;;;18.17;6.68;;;;;;;;;;5075344;28;20039;-77
2022/05/03 09:10:21;;;;;;;17.95;6.70;;;;;;;;;;5075637;28;20044;-77
2022/05/03 09:12:49;;;;;;;18.67;6.88;;;;;;;;;;5091768;28;20323;-77
2022/05/03 09:15:15;;;;;;;17.90;6.30;;;;;;;;;;5092390;28;20047;-77
2022/05/03 09:17:48;;;;;;;19.65;6.38;;;;;;;;;;5075779;28;20097;-77
2022/05/03 09:26:12;;;;;;;16.88;6.07;;;;;;;;;;5084134;28;20051;-76
2022/05/03 09:28:44;;;;;;;21.63;6.60;;;;;;;;;;5091914;28;20569;-77
2022/05/03 09:31:10;;;;;;;12.45;5.25;;;;;;;;;;5091680;28;20059;-77
2022/05/03 09:33:37;;;;;;;17.67;5.88;;;;;;;;;;5094339;28;20048;-77
2022/05/03 09:36:10;;;;;;;16.95;5.82;;;;;;;;;;5094789;28;20055;-77
2022/05/03 09:38:50;;;;;;;14.18;5.10;;;;;;;;;;5094432;28;20035;-78
2022/05/03 09:41:16;;;;;;;19.85;5.57;;;;;;;;;;5094667;28;20562;-77
2022/05/03 09:44:01;;;;;;;13.90;5.00;;;;;;;;;;5094919;28;20077;-77
2022/05/03 09:46:28;;;;;;;17.00;5.03;;;;;;;;;;5094668;28;20031;-77
2022/05/03 09:48:55;;;;;;;13.45;4.80;;;;;;;;;;5094569;28;20032;-78
2022/05/03 09:51:22;;;;;;;18.13;4.80;;;;;;;;;;5094698;28;20085;-79
2022/05/03 09:54:02;;;;;;;12.50;4.57;;;;;;;;;;5094932;28;20131;-78
2022/05/03 09:56:32;;;;;;;13.95;4.57;;;;;;;;;;5094406;28;20506;-77
2022/05/03 09:59:04;;;;;;;16.63;5.03;;;;;;;;;;5077675;28;20040;-78
2022/05/03 10:01:42;;;;;;;12.77;4.18;;;;;;;;;;5077922;28;20039;-78
2022/05/03 10:04:08;;;;;;;16.05;5.50;;;;;;;;;;5094187;28;20043;-76
2022/05/03 10:06:35;;;;;;;13.20;4.57;;;;;;;;;;5094466;28;20067;-78
2022/05/03 10:09:01;;;;;;;15.68;4.70;;;;;;;;;;5094273;28;20036;-78
2022/05/03 10:11:27;;;;;;;13.60;4.78;;;;;;;;;;5094309;28;20073;-79
2022/05/03 10:13:54;;;;;;;12.40;4.47;;;;;;;;;;5076845;28;20576;-78
2022/05/03 10:21:55;;;;;;;17.33;5.07;;;;;;;;;;5093743;28;20050;-79
2022/05/03 10:24:22;;;;;;;13.85;4.35;;;;;;;;;;5076307;28;20040;-79
2022/05/03 10:27:06;;;;;;;13.10;4.82;;;;;;;;;;5094009;28;20047;-78
2022/05/03 10:29:35;;;;;;;10.98;4.50;;;;;;;;;;5094195;28;20039;-79
2022/05/03 10:32:04;;;;;;;16.40;5.30;;;;;;;;;;5093697;28;20043;-78
2022/05/03 10:34:53;;;;;;;12.40;4.60;;;;;;;;;;5093924;28;20141;-76
2022/05/03 10:37:19;;;;;;;12.13;4.85;;;;;;;;;;5093671;28;20043;-76
2022/05/03 10:39:55;;;;;;;14.80;4.70;;;;;;;;;;5093947;28;20036;-77
2022/05/03 10:42:31;;;;;;;13.55;4.45;;;;;;;;;;5093182;28;20088;-76
2022/05/03 10:44:57;;;;;;;12.98;4.30;;;;;;;;;;5093408;28;20061;-77
2022/05/03 10:47:41;;;;;;;9.77;4.35;;;;;;;;;;5093778;28;20039;-77
2022/05/03 10:50:16;;;;;;;13.98;4.93;;;;;;;;;;5093222;28;20482;-78
2022/05/03 10:52:58;;;;;;;10.43;4.30;;;;;;;;;;5092865;28;20077;-77
2022/05/03 10:55:25;;;;;;;10.55;4.20;;;;;;;;;;5093478;28;20035;-78
2022/05/03 10:58:10;;;;;;;9.45;4.07;;;;;;;;;;5075922;28;20388;-77
2022/05/03 11:00:55;;;;;;;12.43;3.92;;;;;;;;;;5092887;28;20067;-78
2022/05/03 11:03:21;;;;;;;13.43;4.30;;;;;;;;;;5093059;28;20449;-78
2022/05/03 11:06:06;;;;;;;9.88;3.78;;;;;;;;;;5092588;28;20043;-78
2022/05/03 11:08:32;;;;;;;8.00;3.65;;;;;;;;;;5092963;28;20036;-78
2022/05/03 11:10:58;;;;;;;9.05;3.60;;;;;;;;;;5092702;28;20035;-76
2022/05/03 11:13:38;;;;;;;11.82;4.00;;;;;;;;;;5093670;28;20078;-78
2022/05/03 11:16:19;;;;;;;10.02;3.60;;;;;;;;;;5092785;28;20079;-78
2022/05/03 11:18:55;;;;;;;9.68;3.78;;;;;;;;;;5092853;28;20041;-79
2022/05/03 11:21:27;;;;;;;18.95;4.00;;;;;;;;;;5092233;28;20348;-77
2022/05/03 11:23:55;;;;;;;10.57;3.60;;;;;;;;;;5092976;28;20521;-76
2022/05/03 11:26:22;;;;;;;10.43;3.13;;;;;;;;;;5091417;28;20046;-78
2022/05/03 11:28:50;;;;;;;8.57;3.15;;;;;;;;;;5092825;28;20100;-77
2022/05/03 11:31:20;;;;;;;9.90;3.20;;;;;;;;;;5092503;28;20046;-78
2022/05/03 11:33:54;;;;;;;9.85;3.80;;;;;;;;;;5092201;28;20546;-79
2022/05/03 11:36:21;;;;;;;10.02;3.83;;;;;;;;;;5092349;28;20126;-77
2022/05/03 11:38:50;;;;;;;10.55;3.28;;;;;;;;;;5092275;28;20044;-79
2022/05/03 11:41:20;;;;;;;8.30;3.53;;;;;;;;;;5091757;28;20082;-77
2022/05/03 11:43:47;;;;;;;9.45;3.13;;;;;;;;;;5092344;28;20111;-78
2022/05/03 11:46:15;;;;;;;8.13;2.95;;;;;;;;;;5091894;28;20047;-80
2022/05/03 11:48:42;;;;;;;12.95;3.45;;;;;;;;;;5092109;28;20043;-79
2022/05/03 11:56:55;;;;;;;11.30;3.13;;;;;;;;;;5028654;28;20036;-78
2022/05/03 11:59:21;;;;;;;7.85;2.45;;;;;;;;;;5071892;28;20036;-78
2022/05/03 12:01:47;;;;;;;10.07;3.38;;;;;;;;;;5087170;28;20039;-77
2022/05/03 12:04:14;;;;;;;8.65;3.20;;;;;;;;;;5091773;28;20395;-78
2022/05/03 12:06:44;;;;;;;8.75;2.97;;;;;;;;;;5091807;28;20111;-76
2022/05/03 12:09:18;;;;;;;9.95;2.85;;;;;;;;;;5092331;28;20039;-77
2022/05/03 12:14:42;;;;;;;9.63;2.90;;;;;;;;;;5091927;28;20048;-79
2022/05/03 12:17:08;;;;;;;8.50;2.55;;;;;;;;;;5075346;28;20093;-78
2022/05/03 12:19:35;;;;;;;8.73;2.70;;;;;;;;;;5075207;28;20425;-79
2022/05/03 12:22:12;;;;;;;8.85;2.75;;;;;;;;;;5090863;28;20043;-78
2022/05/03 12:24:41;;;;;;;11.43;3.30;;;;;;;;;;5092250;28;20492;-78
2022/05/03 12:27:15;;;;;;;7.07;2.55;;;;;;;;;;5074776;28;20073;-77
2022/05/03 12:29:45;;;;;;;5.80;2.50;;;;;;;;;;5091389;28;20039;-75
2022/05/03 12:32:16;;;;;;;8.32;2.90;;;;;;;;;;5091941;28;20058;-79
2022/05/03 12:35:02;;;;;;;8.23;2.67;;;;;;;;;;5091558;28;20077;-78
2022/05/03 12:37:29;;;;;;;8.40;2.70;;;;;;;;;;5094575;28;20047;-78
2022/05/03 12:40:02;;;;;;;7.32;2.63;;;;;;;;;;5096087;28;20503;-77
2022/05/03 12:42:28;;;;;;;8.27;2.80;;;;;;;;;;5095818;28;20089;-77
2022/05/03 12:44:55;;;;;;;8.57;2.50;;;;;;;;;;5095567;28;20038;-77
2022/05/03 12:47:22;;;;;;;10.75;3.28;;;;;;;;;;5095913;28;20077;-80
2022/05/03 12:49:48;;;;;;;11.13;3.10;;;;;;;;;;5096475;28;20046;-76
2022/05/03 12:52:15;;;;;;;8.48;2.70;;;;;;;;;;5095873;28;20067;-77
2022/05/03 12:54:42;;;;;;;7.68;2.42;;;;;;;;;;5096293;28;20578;-78
2022/05/03 12:59:54;;;;;;;;;;;;;;;;;;5096151;28;20054;-77
2022/05/03 13:02:21;;;;;;;8.75;3.05;;;;;;;;;;5095151;28;20240;-79
2022/05/03 13:04:47;;;;;;;9.95;2.50;;;;;;;;;;5095427;28;20142;-79
2022/05/03 13:07:14;;;;;;;13.40;3.13;;;;;;;;;;5094987;28;20039;-78
2022/05/03 13:09:40;;;;;;;9.65;3.15;;;;;;;;;;5094986;28;20044;-79
2022/05/03 13:12:06;;;;;;;11.60;3.40;;;;;;;;;;5095531;28;20044;-79
2022/05/03 13:14:33;;;;;;;11.27;3.20;;;;;;;;;;5095766;28;20047;-77
2022/05/03 13:16:59;;;;;;;8.98;3.08;;;;;;;;;;5094404;28;20135;-78
2022/05/03 13:19:27;;;;;;;10.30;2.92;;;;;;;;;;5077418;28;20055;-78
2022/05/03 13:21:56;;;;;;;8.30;2.67;;;;;;;;;;5094833;28;20040;-78
2022/05/03 13:24:23;;;;;;;14.20;2.92;;;;;;;;;;5094322;28;20037;-78
2022/05/03 13:26:49;;;;;;;9.15;2.97;;;;;;;;;;5094924;28;20038;-78
2022/05/03 13:29:17;;;;;;;8.25;2.70;;;;;;;;;;5095313;28;20036;-79
2022/05/03 13:31:46;;;;;;;7.63;2.90;;;;;;;;;;5094685;28;20046;-78
2022/05/03 13:34:12;;;;;;;7.32;2.80;;;;;;;;;;5074079;28;20095;-77
2022/05/03 13:42:10;;;;;;;7.72;2.63;;;;;;;;;;5091141;28;20530;-77
2022/05/03 13:44:37;;;;;;;12.63;3.08;;;;;;;;;;5074289;28;20506;-78
2022/05/03 13:47:04;;;;;;;6.90;2.80;;;;;;;;;;5091369;28;20105;-76
2022/05/03 13:49:30;;;;;;;8.13;2.83;;;;;;;;;;5090866;28;20062;-78
2022/05/03 13:51:58;;;;;;;9.90;2.92;;;;;;;;;;5091118;28;20044;-78
2022/05/03 13:54:24;;;;;;;10.38;3.38;;;;;;;;;;5091377;28;20392;-78
2022/05/03 13:56:50;;;;;;;7.13;2.75;;;;;;;;;;5091338;28;20044;-78
2022/05/03 13:59:17;;;;;;;9.23;3.05;;;;;;;;;;5090931;28;20453;-76
2022/05/03 14:01:43;;;;;;;7.65;2.60;;;;;;;;;;5090929;28;20048;-78
2022/05/03 14:04:09;;;;;;;10.13;3.35;;;;;;;;;;5090422;28;20487;-78
2022/05/03 14:06:35;;;;;;;10.40;3.00;;;;;;;;;;5090729;28;20118;-78
2022/05/03 14:09:02;;;;;;;10.48;3.10;;;;;;;;;;5090712;28;20495;-78
2022/05/03 14:11:28;;;;;;;7.63;2.78;;;;;;;;;;5090623;28;20047;-77
2022/05/03 14:13:54;;;;;;;10.18;2.70;;;;;;;;;;5090287;28;20402;-78
2022/05/03 14:16:21;;;;;;;11.52;3.03;;;;;;;;;;5080892;28;20083;-78
2022/05/03 14:18:47;;;;;;;8.65;2.92;;;;;;;;;;5073647;28;20101;-77
2022/05/03 14:21:13;;;;;;;7.97;2.67;;;;;;;;;;5090208;28;20039;-79
2022/05/03 14:23:40;;;;;;;9.82;3.25;;;;;;;;;;5073169;28;20040;-78
2022/05/03 14:26:09;;;;;;;8.25;2.83;;;;;;;;;;5090223;28;20415;-77
2022/05/03 14:28:35;;;;;;;9.75;3.45;;;;;;;;;;5073865;28;20517;-79
2022/05/03 14:31:02;;;;;;;11.85;3.67;;;;;;;;;;5090878;28;20036;-78
2022/05/03 14:33:28;;;;;;;8.63;2.80;;;;;;;;;;5074796;28;20040;-77
2022/05/03 14:35:54;;;;;;;9.88;3.42;;;;;;;;;;5094413;28;20040;-78
2022/05/03 14:38:21;;;;;;;8.73;3.22;;;;;;;;;;5093842;28;20051;-79
2022/05/03 14:40:47;;;;;;;10.75;3.05;;;;;;;;;;5093513;28;20031;-78
2022/05/03 14:43:13;;;;;;;9.25;3.33;;;;;;;;;;5093813;28;20071;-80
2022/05/03 14:45:39;;;;;;;9.55;3.15;;;;;;;;;;5093742;28;20095;-78
2022/05/03 14:48:06;;;;;;;9.65;3.08;;;;;;;;;;5092749;28;20035;-77
2022/05/03 14:50:32;;;;;;;9.23;3.65;;;;;;;;;;5093634;28;20096;-78
2022/05/03 14:52:59;;;;;;;8.98;3.55;;;;;;;;;;5076619;28;20123;-78
2022/05/03 14:55:25;;;;;;;11.20;2.80;;;;;;;;;;5093095;28;20122;-77
2022/05/03 15:03:22;;;;;;;15.00;3.67;;;;;;;;;;5094372;28;20182;-78
2022/05/03 15:05:48;;;;;;;9.45;3.70;;;;;;;;;;5075569;28;20379;-78
2022/05/03 15:08:14;;;;;;;9.90;3.10;;;;;;;;;;5093121;28;20038;-79
2022/05/03 15:10:41;;;;;;;10.98;3.53;;;;;;;;;;5075959;28;20032;-79
2022/05/03 15:13:08;;;;;;;11.95;3.63;;;;;;;;;;5076868;28;20075;-79
2022/05/03 15:15:34;;;;;;;8.98;3.10;;;;;;;;;;5092627;28;20042;-78
2022/05/03 15:18:02;;;;;;;8.50;3.42;;;;;;;;;;5093427;28;20043;-79
2022/05/03 15:20:29;;;;;;;9.27;3.10;;;;;;;;;;5093455;28;20496;-78
2022/05/03 15:25:44;;;;;;;6.72;3.10;;;;;;;;;;5092530;28;20078;-77
2022/05/03 15:28:11;;;;;;;10.15;3.60;;;;;;;;;;5092626;28;20368;-80
2022/05/03 15:30:37;;;;;;;12.52;2.97;;;;;;;;;;5092352;28;20135;-78
2022/05/03 15:33:04;;;;;;;9.50;3.15;;;;;;;;;;5092792;28;20120;-78
2022/05/03 15:35:30;;;;;;;11.48;3.17;;;;;;;;;;5076880;28;20062;-80